Pagrindinis puslapis
METAR-TAF:

METAR-TAF

Oro uostai :

Bažė, Pietų Rio Grandė, Brazilija

platuma: 31-21S, ilguma: 054-07W, Aukštis: 180 m

METAR: trūkstamas

Laikas: 18:42 (21:42 UTC)

Prognozė

Ataskaita buvo paskelbta 30 valandos ir 12 minutes, ne 15:30 UTC
Prognozė galioja nuo 20 metu 18 UTC su 21 metu 18 UTC
Vėjas 12 kt iš Pietų/Pietryčių
Matomumas 10 km arba daugiau
nėra debesų žemiau 1500 m ir nėra kamuolinių lietaus debesų
Tapsmas
nuo 20 metu 20 UTC su 20 metu 22 UTC
Vėjas 5 kt iš Rytų

TAF: SBBG 201530Z 2018/2118 15012KT CAVOK TX18/2018Z TN05/2109Z BECMG 2020/2022 10005KT RMK PEB

Orai ataskaitas ir orų prognozės (METAR, TAF).

turimą stotys yra geltonos ir raudonos taškus žemėlapyje.

Perkelti pele per norėdami pamatyti stoties vardą.

Tada spustelėkite, norėdami matyti oro stebėjimo ir prognozės.

Norėdami pakeisti žemėlapį: spustelėkite ant žalios mygtukų su juodo kryžiaus žemyn,; žalią mygtuką su brūkšneliu, jei norite nutolinti; arba žalių rodyklių gretimoms žemėlapius.


METAR-TAF: